sensor_id;sensor_type;location;lat;lon;timestamp;P1;durP1;ratioP1;P2;durP2;ratioP2
18499;SDS011;9379;52.134;11.576;2023-05-21T00:01:15;7.30;;;5.63;;
18499;SDS011;9379;52.134;11.576;2023-05-21T00:03:42;7.70;;;5.85;;
18499;SDS011;9379;52.134;11.576;2023-05-21T00:06:10;6.47;;;5.88;;
18499;SDS011;9379;52.134;11.576;2023-05-21T00:08:39;6.13;;;5.53;;
18499;SDS011;9379;52.134;11.576;2023-05-21T00:11:06;8.10;;;7.18;;
18499;SDS011;9379;52.134;11.576;2023-05-21T00:13:33;6.40;;;5.80;;
18499;SDS011;9379;52.134;11.576;2023-05-21T00:16:01;6.30;;;5.70;;
18499;SDS011;9379;52.134;11.576;2023-05-21T00:18:28;6.78;;;6.18;;
18499;SDS011;9379;52.134;11.576;2023-05-21T00:20:56;6.65;;;5.70;;
18499;SDS011;9379;52.134;11.576;2023-05-21T00:23:23;8.23;;;5.57;;
18499;SDS011;9379;52.134;11.576;2023-05-21T00:25:50;6.70;;;6.10;;
18499;SDS011;9379;52.134;11.576;2023-05-21T00:28:17;6.20;;;5.60;;
18499;SDS011;9379;52.134;11.576;2023-05-21T00:30:44;6.00;;;5.47;;
18499;SDS011;9379;52.134;11.576;2023-05-21T00:33:12;24.58;;;7.05;;
18499;SDS011;9379;52.134;11.576;2023-05-21T00:35:39;7.13;;;6.15;;
18499;SDS011;9379;52.134;11.576;2023-05-21T00:38:06;11.00;;;6.78;;
18499;SDS011;9379;52.134;11.576;2023-05-21T00:40:34;6.90;;;6.38;;
18499;SDS011;9379;52.134;11.576;2023-05-21T00:43:01;6.30;;;5.63;;
18499;SDS011;9379;52.134;11.576;2023-05-21T00:45:28;6.60;;;6.00;;
18499;SDS011;9379;52.134;11.576;2023-05-21T00:47:55;5.80;;;5.30;;
18499;SDS011;9379;52.134;11.576;2023-05-21T00:50:24;8.05;;;5.90;;
18499;SDS011;9379;52.134;11.576;2023-05-21T00:52:51;6.50;;;5.88;;
18499;SDS011;9379;52.134;11.576;2023-05-21T00:55:19;5.50;;;5.10;;
18499;SDS011;9379;52.134;11.576;2023-05-21T00:57:47;7.20;;;6.50;;
18499;SDS011;9379;52.134;11.576;2023-05-21T01:00:14;6.00;;;5.38;;
18499;SDS011;9379;52.134;11.576;2023-05-21T01:02:41;6.30;;;5.60;;
18499;SDS011;9379;52.134;11.576;2023-05-21T01:05:09;5.68;;;4.68;;
18499;SDS011;9379;52.134;11.576;2023-05-21T01:07:38;14.55;;;6.63;;
18499;SDS011;9379;52.134;11.576;2023-05-21T01:10:07;7.32;;;6.63;;
18499;SDS011;9379;52.134;11.576;2023-05-21T01:12:37;6.68;;;6.07;;
18499;SDS011;9379;52.134;11.576;2023-05-21T01:15:08;7.15;;;6.53;;
18499;SDS011;9379;52.134;11.576;2023-05-21T01:17:36;6.10;;;5.60;;
18499;SDS011;9379;52.134;11.576;2023-05-21T01:20:05;11.93;;;6.93;;
18499;SDS011;9379;52.134;11.576;2023-05-21T01:22:35;6.07;;;5.47;;
18499;SDS011;9379;52.134;11.576;2023-05-21T01:25:05;6.55;;;5.93;;
18499;SDS011;9379;52.134;11.576;2023-05-21T01:27:33;6.90;;;5.97;;
18499;SDS011;9379;52.134;11.576;2023-05-21T01:29:59;6.25;;;5.65;;
18499;SDS011;9379;52.134;11.576;2023-05-21T01:32:28;7.22;;;6.60;;
18499;SDS011;9379;52.134;11.576;2023-05-21T01:35:01;7.40;;;6.70;;
18499;SDS011;9379;52.134;11.576;2023-05-21T01:37:33;10.32;;;6.40;;
18499;SDS011;9379;52.134;11.576;2023-05-21T01:40:09;8.73;;;7.82;;
18499;SDS011;9379;52.134;11.576;2023-05-21T01:42:41;6.93;;;6.32;;
18499;SDS011;9379;52.134;11.576;2023-05-21T01:45:09;7.25;;;6.65;;
18499;SDS011;9379;52.134;11.576;2023-05-21T01:47:39;6.95;;;6.32;;
18499;SDS011;9379;52.134;11.576;2023-05-21T01:50:07;6.78;;;6.07;;
18499;SDS011;9379;52.134;11.576;2023-05-21T01:52:35;7.47;;;6.40;;
18499;SDS011;9379;52.134;11.576;2023-05-21T01:55:02;7.22;;;6.00;;
18499;SDS011;9379;52.134;11.576;2023-05-21T01:57:30;9.75;;;7.47;;
18499;SDS011;9379;52.134;11.576;2023-05-21T01:59:57;8.98;;;7.85;;
18499;SDS011;9379;52.134;11.576;2023-05-21T02:02:25;8.50;;;6.70;;
18499;SDS011;9379;52.134;11.576;2023-05-21T02:04:51;7.45;;;6.68;;
18499;SDS011;9379;52.134;11.576;2023-05-21T02:07:18;8.02;;;7.13;;
18499;SDS011;9379;52.134;11.576;2023-05-21T02:09:49;6.63;;;6.13;;
18499;SDS011;9379;52.134;11.576;2023-05-21T02:12:16;7.13;;;6.43;;
18499;SDS011;9379;52.134;11.576;2023-05-21T02:14:44;8.07;;;7.30;;
18499;SDS011;9379;52.134;11.576;2023-05-21T02:17:14;6.72;;;6.13;;
18499;SDS011;9379;52.134;11.576;2023-05-21T02:19:41;7.82;;;7.18;;
18499;SDS011;9379;52.134;11.576;2023-05-21T02:22:08;8.45;;;7.63;;
18499;SDS011;9379;52.134;11.576;2023-05-21T02:24:35;6.82;;;6.13;;
18499;SDS011;9379;52.134;11.576;2023-05-21T02:27:02;8.10;;;7.40;;
18499;SDS011;9379;52.134;11.576;2023-05-21T02:29:30;9.90;;;6.63;;
18499;SDS011;9379;52.134;11.576;2023-05-21T02:32:01;9.95;;;7.47;;
18499;SDS011;9379;52.134;11.576;2023-05-21T02:34:28;7.40;;;6.57;;
18499;SDS011;9379;52.134;11.576;2023-05-21T02:36:56;7.90;;;7.18;;
18499;SDS011;9379;52.134;11.576;2023-05-21T02:39:23;6.80;;;6.20;;
18499;SDS011;9379;52.134;11.576;2023-05-21T02:41:50;7.03;;;6.32;;
18499;SDS011;9379;52.134;11.576;2023-05-21T02:44:17;8.32;;;7.53;;
18499;SDS011;9379;52.134;11.576;2023-05-21T02:46:44;9.10;;;8.25;;
18499;SDS011;9379;52.134;11.576;2023-05-21T02:49:13;8.73;;;7.75;;
18499;SDS011;9379;52.134;11.576;2023-05-21T02:51:42;7.53;;;6.85;;
18499;SDS011;9379;52.134;11.576;2023-05-21T02:54:11;7.38;;;6.68;;
18499;SDS011;9379;52.134;11.576;2023-05-21T02:56:38;7.30;;;6.57;;
18499;SDS011;9379;52.134;11.576;2023-05-21T02:59:05;7.72;;;6.93;;
18499;SDS011;9379;52.134;11.576;2023-05-21T03:01:32;7.43;;;6.72;;
18499;SDS011;9379;52.134;11.576;2023-05-21T03:03:59;8.25;;;7.47;;
18499;SDS011;9379;52.134;11.576;2023-05-21T03:06:27;8.32;;;7.47;;
18499;SDS011;9379;52.134;11.576;2023-05-21T03:08:54;8.02;;;6.45;;
18499;SDS011;9379;52.134;11.576;2023-05-21T03:11:20;8.35;;;7.65;;
18499;SDS011;9379;52.134;11.576;2023-05-21T03:13:47;7.95;;;7.15;;
18499;SDS011;9379;52.134;11.576;2023-05-21T03:16:14;6.93;;;6.22;;
18499;SDS011;9379;52.134;11.576;2023-05-21T03:18:41;8.77;;;7.95;;
18499;SDS011;9379;52.134;11.576;2023-05-21T03:21:08;8.80;;;7.90;;
18499;SDS011;9379;52.134;11.576;2023-05-21T03:23:38;9.00;;;8.10;;
18499;SDS011;9379;52.134;11.576;2023-05-21T03:26:05;8.95;;;7.68;;
18499;SDS011;9379;52.134;11.576;2023-05-21T03:28:33;12.65;;;8.70;;
18499;SDS011;9379;52.134;11.576;2023-05-21T03:31:00;9.93;;;9.05;;
18499;SDS011;9379;52.134;11.576;2023-05-21T03:33:27;8.38;;;7.60;;
18499;SDS011;9379;52.134;11.576;2023-05-21T03:35:54;9.45;;;8.48;;
18499;SDS011;9379;52.134;11.576;2023-05-21T03:38:20;10.98;;;9.15;;
18499;SDS011;9379;52.134;11.576;2023-05-21T03:40:49;8.63;;;7.82;;
18499;SDS011;9379;52.134;11.576;2023-05-21T03:43:15;11.10;;;8.77;;
18499;SDS011;9379;52.134;11.576;2023-05-21T03:45:42;17.77;;;10.20;;
18499;SDS011;9379;52.134;11.576;2023-05-21T03:48:09;8.15;;;7.35;;
18499;SDS011;9379;52.134;11.576;2023-05-21T03:50:36;9.13;;;7.88;;
18499;SDS011;9379;52.134;11.576;2023-05-21T03:53:02;9.65;;;8.75;;
18499;SDS011;9379;52.134;11.576;2023-05-21T03:55:29;8.63;;;7.85;;
18499;SDS011;9379;52.134;11.576;2023-05-21T03:57:57;9.70;;;8.85;;
18499;SDS011;9379;52.134;11.576;2023-05-21T04:00:24;12.07;;;9.70;;
18499;SDS011;9379;52.134;11.576;2023-05-21T04:02:51;8.98;;;7.80;;
18499;SDS011;9379;52.134;11.576;2023-05-21T04:05:18;8.85;;;7.47;;
18499;SDS011;9379;52.134;11.576;2023-05-21T04:07:45;10.05;;;9.05;;
18499;SDS011;9379;52.134;11.576;2023-05-21T04:10:12;12.00;;;10.65;;
18499;SDS011;9379;52.134;11.576;2023-05-21T04:12:40;11.20;;;10.07;;
18499;SDS011;9379;52.134;11.576;2023-05-21T04:15:09;13.63;;;9.40;;
18499;SDS011;9379;52.134;11.576;2023-05-21T04:17:36;8.10;;;7.40;;
18499;SDS011;9379;52.134;11.576;2023-05-21T04:20:04;9.93;;;8.90;;
18499;SDS011;9379;52.134;11.576;2023-05-21T04:22:32;8.82;;;7.93;;
18499;SDS011;9379;52.134;11.576;2023-05-21T04:24:59;10.20;;;8.80;;
18499;SDS011;9379;52.134;11.576;2023-05-21T04:27:26;12.43;;;10.55;;
18499;SDS011;9379;52.134;11.576;2023-05-21T04:29:53;8.98;;;8.13;;
18499;SDS011;9379;52.134;11.576;2023-05-21T04:32:21;8.35;;;7.43;;
18499;SDS011;9379;52.134;11.576;2023-05-21T04:34:48;12.55;;;11.00;;
18499;SDS011;9379;52.134;11.576;2023-05-21T04:37:15;12.43;;;11.27;;
18499;SDS011;9379;52.134;11.576;2023-05-21T04:39:43;10.35;;;9.35;;
18499;SDS011;9379;52.134;11.576;2023-05-21T04:42:10;9.93;;;9.07;;
18499;SDS011;9379;52.134;11.576;2023-05-21T04:44:38;12.98;;;11.50;;
18499;SDS011;9379;52.134;11.576;2023-05-21T04:47:05;13.07;;;11.40;;
18499;SDS011;9379;52.134;11.576;2023-05-21T04:49:34;10.85;;;9.70;;
18499;SDS011;9379;52.134;11.576;2023-05-21T04:52:03;11.32;;;9.82;;
18499;SDS011;9379;52.134;11.576;2023-05-21T04:54:30;9.75;;;8.82;;
18499;SDS011;9379;52.134;11.576;2023-05-21T04:56:59;10.38;;;9.13;;
18499;SDS011;9379;52.134;11.576;2023-05-21T04:59:27;11.88;;;10.80;;
18499;SDS011;9379;52.134;11.576;2023-05-21T05:01:53;13.05;;;11.43;;
18499;SDS011;9379;52.134;11.576;2023-05-21T05:04:20;11.40;;;10.30;;
18499;SDS011;9379;52.134;11.576;2023-05-21T05:06:48;11.25;;;9.57;;
18499;SDS011;9379;52.134;11.576;2023-05-21T05:09:16;9.32;;;8.43;;
18499;SDS011;9379;52.134;11.576;2023-05-21T05:11:42;10.25;;;9.23;;
18499;SDS011;9379;52.134;11.576;2023-05-21T05:14:09;11.88;;;10.65;;
18499;SDS011;9379;52.134;11.576;2023-05-21T05:16:36;10.15;;;9.15;;
18499;SDS011;9379;52.134;11.576;2023-05-21T05:19:03;12.82;;;11.50;;
18499;SDS011;9379;52.134;11.576;2023-05-21T05:21:30;12.50;;;10.48;;
18499;SDS011;9379;52.134;11.576;2023-05-21T05:23:58;11.93;;;10.30;;
18499;SDS011;9379;52.134;11.576;2023-05-21T05:26:25;12.23;;;11.10;;
18499;SDS011;9379;52.134;11.576;2023-05-21T05:28:52;11.15;;;10.07;;
18499;SDS011;9379;52.134;11.576;2023-05-21T05:31:18;12.90;;;9.65;;
18499;SDS011;9379;52.134;11.576;2023-05-21T05:33:45;12.00;;;10.77;;
18499;SDS011;9379;52.134;11.576;2023-05-21T05:36:13;13.25;;;11.88;;
18499;SDS011;9379;52.134;11.576;2023-05-21T05:38:40;14.38;;;12.98;;
18499;SDS011;9379;52.134;11.576;2023-05-21T05:41:08;12.77;;;11.02;;
18499;SDS011;9379;52.134;11.576;2023-05-21T05:43:35;15.60;;;13.85;;
18499;SDS011;9379;52.134;11.576;2023-05-21T05:46:02;17.25;;;12.88;;
18499;SDS011;9379;52.134;11.576;2023-05-21T05:48:29;13.38;;;11.85;;
18499;SDS011;9379;52.134;11.576;2023-05-21T05:50:56;14.32;;;12.10;;
18499;SDS011;9379;52.134;11.576;2023-05-21T05:53:23;12.52;;;10.65;;
18499;SDS011;9379;52.134;11.576;2023-05-21T05:55:50;15.85;;;13.02;;
18499;SDS011;9379;52.134;11.576;2023-05-21T05:58:18;15.13;;;12.68;;
18499;SDS011;9379;52.134;11.576;2023-05-21T06:00:45;16.77;;;14.27;;
18499;SDS011;9379;52.134;11.576;2023-05-21T06:03:12;15.73;;;13.55;;
18499;SDS011;9379;52.134;11.576;2023-05-21T06:05:38;19.17;;;16.67;;
18499;SDS011;9379;52.134;11.576;2023-05-21T06:08:05;15.20;;;13.60;;
18499;SDS011;9379;52.134;11.576;2023-05-21T06:10:32;17.67;;;14.35;;
18499;SDS011;9379;52.134;11.576;2023-05-21T06:12:59;14.18;;;11.43;;
18499;SDS011;9379;52.134;11.576;2023-05-21T06:15:27;13.10;;;11.88;;
18499;SDS011;9379;52.134;11.576;2023-05-21T06:17:54;14.68;;;13.15;;
18499;SDS011;9379;52.134;11.576;2023-05-21T06:20:20;19.42;;;17.33;;
18499;SDS011;9379;52.134;11.576;2023-05-21T06:22:47;17.60;;;14.48;;
18499;SDS011;9379;52.134;11.576;2023-05-21T06:25:14;15.35;;;13.93;;
18499;SDS011;9379;52.134;11.576;2023-05-21T06:27:42;18.48;;;16.30;;
18499;SDS011;9379;52.134;11.576;2023-05-21T06:30:09;16.85;;;15.07;;
18499;SDS011;9379;52.134;11.576;2023-05-21T06:32:37;19.30;;;15.18;;
18499;SDS011;9379;52.134;11.576;2023-05-21T06:35:04;17.52;;;14.75;;
18499;SDS011;9379;52.134;11.576;2023-05-21T06:37:31;17.13;;;15.18;;
18499;SDS011;9379;52.134;11.576;2023-05-21T06:39:58;16.60;;;14.88;;
18499;SDS011;9379;52.134;11.576;2023-05-21T06:42:27;19.73;;;17.67;;
18499;SDS011;9379;52.134;11.576;2023-05-21T06:44:53;22.73;;;16.63;;
18499;SDS011;9379;52.134;11.576;2023-05-21T06:47:20;17.77;;;14.95;;
18499;SDS011;9379;52.134;11.576;2023-05-21T06:49:48;17.83;;;15.95;;
18499;SDS011;9379;52.134;11.576;2023-05-21T06:52:15;17.08;;;14.40;;
18499;SDS011;9379;52.134;11.576;2023-05-21T06:54:42;18.63;;;13.52;;
18499;SDS011;9379;52.134;11.576;2023-05-21T06:57:09;16.30;;;14.57;;
18499;SDS011;9379;52.134;11.576;2023-05-21T06:59:35;16.95;;;14.35;;
18499;SDS011;9379;52.134;11.576;2023-05-21T07:02:02;14.80;;;13.00;;
18499;SDS011;9379;52.134;11.576;2023-05-21T07:04:29;18.55;;;15.18;;
18499;SDS011;9379;52.134;11.576;2023-05-21T07:06:57;17.15;;;14.23;;
18499;SDS011;9379;52.134;11.576;2023-05-21T07:09:24;15.75;;;13.77;;
18499;SDS011;9379;52.134;11.576;2023-05-21T07:11:51;12.70;;;10.02;;
18499;SDS011;9379;52.134;11.576;2023-05-21T07:14:18;13.30;;;11.77;;
18499;SDS011;9379;52.134;11.576;2023-05-21T07:16:45;18.77;;;16.23;;
18499;SDS011;9379;52.134;11.576;2023-05-21T07:19:12;18.63;;;14.13;;
18499;SDS011;9379;52.134;11.576;2023-05-21T07:21:40;19.25;;;15.63;;
18499;SDS011;9379;52.134;11.576;2023-05-21T07:24:08;21.08;;;15.73;;
18499;SDS011;9379;52.134;11.576;2023-05-21T07:26:35;17.55;;;15.10;;
18499;SDS011;9379;52.134;11.576;2023-05-21T07:29:01;16.33;;;13.20;;
18499;SDS011;9379;52.134;11.576;2023-05-21T07:31:28;15.52;;;13.18;;
18499;SDS011;9379;52.134;11.576;2023-05-21T07:33:55;13.70;;;11.48;;
18499;SDS011;9379;52.134;11.576;2023-05-21T07:36:22;12.93;;;11.55;;
18499;SDS011;9379;52.134;11.576;2023-05-21T07:38:51;14.98;;;12.10;;
18499;SDS011;9379;52.134;11.576;2023-05-21T07:41:20;14.75;;;13.27;;
18499;SDS011;9379;52.134;11.576;2023-05-21T07:43:47;17.13;;;14.68;;
18499;SDS011;9379;52.134;11.576;2023-05-21T07:46:14;20.98;;;15.65;;
18499;SDS011;9379;52.134;11.576;2023-05-21T07:48:41;14.93;;;13.35;;
18499;SDS011;9379;52.134;11.576;2023-05-21T07:51:08;19.10;;;16.10;;
18499;SDS011;9379;52.134;11.576;2023-05-21T07:53:34;16.70;;;14.98;;
18499;SDS011;9379;52.134;11.576;2023-05-21T07:56:01;17.42;;;15.57;;
18499;SDS011;9379;52.134;11.576;2023-05-21T07:58:29;15.65;;;14.00;;
18499;SDS011;9379;52.134;11.576;2023-05-21T08:00:56;17.58;;;15.75;;
18499;SDS011;9379;52.134;11.576;2023-05-21T08:03:25;25.75;;;17.42;;
18499;SDS011;9379;52.134;11.576;2023-05-21T08:05:52;16.92;;;14.05;;
18499;SDS011;9379;52.134;11.576;2023-05-21T08:08:20;15.05;;;13.52;;
18499;SDS011;9379;52.134;11.576;2023-05-21T08:10:47;16.92;;;15.13;;
18499;SDS011;9379;52.134;11.576;2023-05-21T08:13:14;12.40;;;11.20;;
18499;SDS011;9379;52.134;11.576;2023-05-21T08:15:43;17.48;;;15.88;;
18499;SDS011;9379;52.134;11.576;2023-05-21T08:18:10;17.67;;;15.07;;
18499;SDS011;9379;52.134;11.576;2023-05-21T08:20:37;20.98;;;15.50;;
18499;SDS011;9379;52.134;11.576;2023-05-21T08:23:04;15.63;;;13.98;;
18499;SDS011;9379;52.134;11.576;2023-05-21T08:25:30;16.67;;;12.52;;
18499;SDS011;9379;52.134;11.576;2023-05-21T08:27:57;15.40;;;13.80;;
18499;SDS011;9379;52.134;11.576;2023-05-21T08:30:24;17.33;;;15.52;;
18499;SDS011;9379;52.134;11.576;2023-05-21T08:32:53;19.67;;;15.45;;
18499;SDS011;9379;52.134;11.576;2023-05-21T08:35:20;17.60;;;15.80;;
18499;SDS011;9379;52.134;11.576;2023-05-21T08:37:46;15.80;;;14.20;;
18499;SDS011;9379;52.134;11.576;2023-05-21T08:40:13;17.42;;;15.10;;
18499;SDS011;9379;52.134;11.576;2023-05-21T08:42:41;17.35;;;15.45;;
18499;SDS011;9379;52.134;11.576;2023-05-21T08:45:10;18.00;;;16.10;;
18499;SDS011;9379;52.134;11.576;2023-05-21T08:47:39;20.65;;;17.88;;
18499;SDS011;9379;52.134;11.576;2023-05-21T08:50:10;16.05;;;14.20;;
18499;SDS011;9379;52.134;11.576;2023-05-21T08:52:43;16.17;;;14.55;;
18499;SDS011;9379;52.134;11.576;2023-05-21T08:55:10;21.30;;;19.30;;
18499;SDS011;9379;52.134;11.576;2023-05-21T08:57:42;14.73;;;13.23;;
18499;SDS011;9379;52.134;11.576;2023-05-21T09:00:10;18.42;;;15.50;;
18499;SDS011;9379;52.134;11.576;2023-05-21T09:02:38;22.63;;;18.77;;
18499;SDS011;9379;52.134;11.576;2023-05-21T09:05:08;15.98;;;14.38;;
18499;SDS011;9379;52.134;11.576;2023-05-21T09:07:38;18.05;;;15.50;;
18499;SDS011;9379;52.134;11.576;2023-05-21T09:10:11;14.77;;;12.57;;
18499;SDS011;9379;52.134;11.576;2023-05-21T09:12:38;18.90;;;16.85;;
18499;SDS011;9379;52.134;11.576;2023-05-21T09:15:05;19.95;;;17.67;;
18499;SDS011;9379;52.134;11.576;2023-05-21T09:17:33;15.23;;;12.45;;
18499;SDS011;9379;52.134;11.576;2023-05-21T09:20:03;15.00;;;13.60;;
18499;SDS011;9379;52.134;11.576;2023-05-21T09:22:35;14.40;;;11.55;;
18499;SDS011;9379;52.134;11.576;2023-05-21T09:25:03;15.85;;;14.35;;
18499;SDS011;9379;52.134;11.576;2023-05-21T09:27:32;14.02;;;12.35;;
18499;SDS011;9379;52.134;11.576;2023-05-21T09:29:59;13.85;;;12.30;;
18499;SDS011;9379;52.134;11.576;2023-05-21T09:32:27;16.00;;;13.68;;
18499;SDS011;9379;52.134;11.576;2023-05-21T09:34:54;12.80;;;11.65;;
18499;SDS011;9379;52.134;11.576;2023-05-21T09:37:20;14.52;;;11.55;;
18499;SDS011;9379;52.134;11.576;2023-05-21T09:39:49;13.05;;;11.68;;
18499;SDS011;9379;52.134;11.576;2023-05-21T09:42:17;19.00;;;17.25;;
18499;SDS011;9379;52.134;11.576;2023-05-21T09:44:46;17.17;;;15.40;;
18499;SDS011;9379;52.134;11.576;2023-05-21T09:47:17;16.17;;;14.65;;
18499;SDS011;9379;52.134;11.576;2023-05-21T09:49:45;15.15;;;13.90;;
18499;SDS011;9379;52.134;11.576;2023-05-21T09:52:11;15.80;;;14.27;;
18499;SDS011;9379;52.134;11.576;2023-05-21T09:54:38;17.00;;;15.45;;
18499;SDS011;9379;52.134;11.576;2023-05-21T09:57:06;18.10;;;15.25;;
18499;SDS011;9379;52.134;11.576;2023-05-21T09:59:37;17.38;;;13.82;;
18499;SDS011;9379;52.134;11.576;2023-05-21T10:02:13;15.20;;;13.63;;
18499;SDS011;9379;52.134;11.576;2023-05-21T10:04:43;23.35;;;14.50;;
18499;SDS011;9379;52.134;11.576;2023-05-21T10:07:14;15.75;;;14.15;;
18499;SDS011;9379;52.134;11.576;2023-05-21T10:09:44;13.55;;;10.73;;
18499;SDS011;9379;52.134;11.576;2023-05-21T10:12:14;12.80;;;11.52;;
18499;SDS011;9379;52.134;11.576;2023-05-21T10:14:48;13.05;;;11.82;;
18499;SDS011;9379;52.134;11.576;2023-05-21T10:17:19;14.75;;;13.25;;
18499;SDS011;9379;52.134;11.576;2023-05-21T10:19:47;13.20;;;12.00;;
18499;SDS011;9379;52.134;11.576;2023-05-21T10:22:15;13.25;;;11.98;;
18499;SDS011;9379;52.134;11.576;2023-05-21T10:24:42;12.20;;;11.02;;
18499;SDS011;9379;52.134;11.576;2023-05-21T10:27:10;14.43;;;12.60;;
18499;SDS011;9379;52.134;11.576;2023-05-21T10:29:40;13.63;;;12.43;;
18499;SDS011;9379;52.134;11.576;2023-05-21T10:32:09;11.65;;;10.45;;
18499;SDS011;9379;52.134;11.576;2023-05-21T10:34:38;13.27;;;10.40;;
18499;SDS011;9379;52.134;11.576;2023-05-21T10:37:06;11.45;;;10.45;;
18499;SDS011;9379;52.134;11.576;2023-05-21T10:39:34;15.98;;;11.75;;
18499;SDS011;9379;52.134;11.576;2023-05-21T10:42:07;12.32;;;11.10;;
18499;SDS011;9379;52.134;11.576;2023-05-21T10:44:59;13.13;;;10.82;;
18499;SDS011;9379;52.134;11.576;2023-05-21T10:47:50;13.40;;;12.02;;
18499;SDS011;9379;52.134;11.576;2023-05-21T10:50:52;12.93;;;11.40;;
18499;SDS011;9379;52.134;11.576;2023-05-21T10:53:34;13.35;;;12.02;;
18499;SDS011;9379;52.134;11.576;2023-05-21T10:56:12;10.73;;;9.82;;
18499;SDS011;9379;52.134;11.576;2023-05-21T10:59:09;10.18;;;8.52;;
18499;SDS011;9379;52.134;11.576;2023-05-21T11:01:47;13.27;;;9.70;;
18499;SDS011;9379;52.134;11.576;2023-05-21T11:04:19;11.65;;;10.55;;
18499;SDS011;9379;52.134;11.576;2023-05-21T11:06:47;11.25;;;9.35;;
18499;SDS011;9379;52.134;11.576;2023-05-21T11:09:14;11.68;;;10.43;;
18499;SDS011;9379;52.134;11.576;2023-05-21T11:11:42;12.23;;;10.00;;
18499;SDS011;9379;52.134;11.576;2023-05-21T11:14:28;10.23;;;9.32;;
18499;SDS011;9379;52.134;11.576;2023-05-21T11:17:00;15.77;;;12.15;;
18499;SDS011;9379;52.134;11.576;2023-05-21T11:19:34;15.05;;;11.13;;
18499;SDS011;9379;52.134;11.576;2023-05-21T11:22:05;9.73;;;8.82;;
18499;SDS011;9379;52.134;11.576;2023-05-21T11:24:35;11.05;;;9.00;;
18499;SDS011;9379;52.134;11.576;2023-05-21T11:27:03;10.65;;;9.23;;
18499;SDS011;9379;52.134;11.576;2023-05-21T11:29:43;10.15;;;9.15;;
18499;SDS011;9379;52.134;11.576;2023-05-21T11:32:13;9.48;;;8.30;;
18499;SDS011;9379;52.134;11.576;2023-05-21T11:34:44;10.10;;;9.10;;
18499;SDS011;9379;52.134;11.576;2023-05-21T11:37:21;11.25;;;10.02;;
18499;SDS011;9379;52.134;11.576;2023-05-21T11:39:51;12.07;;;10.00;;
18499;SDS011;9379;52.134;11.576;2023-05-21T11:42:31;10.05;;;8.45;;
18499;SDS011;9379;52.134;11.576;2023-05-21T11:44:59;11.52;;;10.15;;
18499;SDS011;9379;52.134;11.576;2023-05-21T11:47:29;15.60;;;10.73;;
18499;SDS011;9379;52.134;11.576;2023-05-21T11:49:57;17.55;;;10.32;;
18499;SDS011;9379;52.134;11.576;2023-05-21T11:52:27;14.23;;;12.70;;
18499;SDS011;9379;52.134;11.576;2023-05-21T11:54:55;12.43;;;11.30;;
18499;SDS011;9379;52.134;11.576;2023-05-21T11:57:25;10.90;;;9.82;;
18499;SDS011;9379;52.134;11.576;2023-05-21T11:59:56;11.60;;;10.48;;
18499;SDS011;9379;52.134;11.576;2023-05-21T12:02:24;9.82;;;8.85;;
18499;SDS011;9379;52.134;11.576;2023-05-21T12:04:54;11.15;;;9.95;;
18499;SDS011;9379;52.134;11.576;2023-05-21T12:07:24;11.52;;;10.35;;
18499;SDS011;9379;52.134;11.576;2023-05-21T12:09:52;12.38;;;10.13;;
18499;SDS011;9379;52.134;11.576;2023-05-21T12:12:20;11.02;;;10.00;;
18499;SDS011;9379;52.134;11.576;2023-05-21T12:14:48;11.73;;;10.57;;
18499;SDS011;9379;52.134;11.576;2023-05-21T12:17:16;9.57;;;8.68;;
18499;SDS011;9379;52.134;11.576;2023-05-21T12:19:44;10.98;;;9.85;;
18499;SDS011;9379;52.134;11.576;2023-05-21T12:22:13;10.05;;;9.15;;
18499;SDS011;9379;52.134;11.576;2023-05-21T12:24:40;10.95;;;9.85;;
18499;SDS011;9379;52.134;11.576;2023-05-21T12:27:08;8.48;;;7.70;;
18499;SDS011;9379;52.134;11.576;2023-05-21T12:29:37;10.93;;;9.10;;
18499;SDS011;9379;52.134;11.576;2023-05-21T12:32:08;10.40;;;9.35;;
18499;SDS011;9379;52.134;11.576;2023-05-21T12:34:37;8.70;;;8.00;;
18499;SDS011;9379;52.134;11.576;2023-05-21T12:37:05;10.77;;;9.75;;
18499;SDS011;9379;52.134;11.576;2023-05-21T12:39:37;11.23;;;10.15;;
18499;SDS011;9379;52.134;11.576;2023-05-21T12:42:08;19.25;;;10.30;;
18499;SDS011;9379;52.134;11.576;2023-05-21T12:44:37;12.75;;;10.10;;
18499;SDS011;9379;52.134;11.576;2023-05-21T12:47:04;11.75;;;10.20;;
18499;SDS011;9379;52.134;11.576;2023-05-21T12:49:32;9.85;;;9.02;;
18499;SDS011;9379;52.134;11.576;2023-05-21T12:52:03;9.30;;;8.35;;
18499;SDS011;9379;52.134;11.576;2023-05-21T12:54:35;11.93;;;10.52;;
18499;SDS011;9379;52.134;11.576;2023-05-21T12:57:05;17.02;;;9.35;;
18499;SDS011;9379;52.134;11.576;2023-05-21T12:59:44;10.50;;;9.60;;
18499;SDS011;9379;52.134;11.576;2023-05-21T13:02:13;9.75;;;8.80;;
18499;SDS011;9379;52.134;11.576;2023-05-21T13:04:40;16.13;;;11.70;;
18499;SDS011;9379;52.134;11.576;2023-05-21T13:07:07;11.48;;;10.38;;
18499;SDS011;9379;52.134;11.576;2023-05-21T13:09:34;11.73;;;10.63;;
18499;SDS011;9379;52.134;11.576;2023-05-21T13:12:02;11.65;;;8.73;;
18499;SDS011;9379;52.134;11.576;2023-05-21T13:14:29;11.18;;;9.95;;
18499;SDS011;9379;52.134;11.576;2023-05-21T13:16:56;14.63;;;9.73;;
18499;SDS011;9379;52.134;11.576;2023-05-21T13:19:23;12.93;;;11.55;;
18499;SDS011;9379;52.134;11.576;2023-05-21T13:21:50;11.30;;;10.25;;
18499;SDS011;9379;52.134;11.576;2023-05-21T13:24:17;10.82;;;9.25;;
18499;SDS011;9379;52.134;11.576;2023-05-21T13:26:43;9.65;;;8.75;;
18499;SDS011;9379;52.134;11.576;2023-05-21T13:29:12;10.00;;;9.00;;
18499;SDS011;9379;52.134;11.576;2023-05-21T13:31:39;10.35;;;8.40;;
18499;SDS011;9379;52.134;11.576;2023-05-21T13:34:06;10.23;;;9.20;;
18499;SDS011;9379;52.134;11.576;2023-05-21T13:36:33;12.25;;;11.02;;
18499;SDS011;9379;52.134;11.576;2023-05-21T13:39:00;10.55;;;8.77;;
18499;SDS011;9379;52.134;11.576;2023-05-21T13:41:27;10.82;;;9.73;;
18499;SDS011;9379;52.134;11.576;2023-05-21T13:43:54;19.63;;;10.43;;
18499;SDS011;9379;52.134;11.576;2023-05-21T13:46:25;10.35;;;8.73;;
18499;SDS011;9379;52.134;11.576;2023-05-21T13:48:52;11.35;;;9.50;;
18499;SDS011;9379;52.134;11.576;2023-05-21T13:51:18;12.65;;;11.48;;
18499;SDS011;9379;52.134;11.576;2023-05-21T13:53:45;13.45;;;11.45;;
18499;SDS011;9379;52.134;11.576;2023-05-21T13:56:12;11.45;;;9.25;;
18499;SDS011;9379;52.134;11.576;2023-05-21T13:58:39;10.27;;;9.38;;
18499;SDS011;9379;52.134;11.576;2023-05-21T14:01:06;10.32;;;9.32;;
18499;SDS011;9379;52.134;11.576;2023-05-21T14:03:34;11.00;;;9.90;;
18499;SDS011;9379;52.134;11.576;2023-05-21T14:06:03;11.57;;;10.35;;
18499;SDS011;9379;52.134;11.576;2023-05-21T14:08:32;15.75;;;9.63;;
18499;SDS011;9379;52.134;11.576;2023-05-21T14:10:59;14.02;;;11.32;;
18499;SDS011;9379;52.134;11.576;2023-05-21T14:13:26;11.32;;;10.20;;
18499;SDS011;9379;52.134;11.576;2023-05-21T14:15:53;11.32;;;10.15;;
18499;SDS011;9379;52.134;11.576;2023-05-21T14:18:20;12.10;;;10.68;;
18499;SDS011;9379;52.134;11.576;2023-05-21T14:20:48;10.88;;;9.77;;
18499;SDS011;9379;52.134;11.576;2023-05-21T14:23:15;11.43;;;9.30;;
18499;SDS011;9379;52.134;11.576;2023-05-21T14:25:42;12.88;;;10.68;;
18499;SDS011;9379;52.134;11.576;2023-05-21T14:28:09;10.13;;;9.13;;
18499;SDS011;9379;52.134;11.576;2023-05-21T14:30:35;16.42;;;11.02;;
18499;SDS011;9379;52.134;11.576;2023-05-21T14:33:02;12.25;;;9.98;;
18499;SDS011;9379;52.134;11.576;2023-05-21T14:35:29;8.10;;;7.30;;
18499;SDS011;9379;52.134;11.576;2023-05-21T14:37:57;13.13;;;8.57;;